sensor_id;sensor_type;location;lat;lon;timestamp;P1;durP1;ratioP1;P2;durP2;ratioP2
23236;SDS011;11787;52.018;8.570;2022-07-18T00:01:27;3.85;;;2.00;;
23236;SDS011;11787;52.018;8.570;2022-07-18T00:03:53;3.88;;;2.25;;
23236;SDS011;11787;52.018;8.570;2022-07-18T00:06:19;2.80;;;2.08;;
23236;SDS011;11787;52.018;8.570;2022-07-18T00:08:44;4.85;;;2.30;;
23236;SDS011;11787;52.018;8.570;2022-07-18T00:11:10;6.32;;;2.30;;
23236;SDS011;11787;52.018;8.570;2022-07-18T00:13:36;4.03;;;2.08;;
23236;SDS011;11787;52.018;8.570;2022-07-18T00:16:01;3.35;;;2.05;;
23236;SDS011;11787;52.018;8.570;2022-07-18T00:18:27;2.60;;;1.67;;
23236;SDS011;11787;52.018;8.570;2022-07-18T00:20:53;4.45;;;2.05;;
23236;SDS011;11787;52.018;8.570;2022-07-18T00:23:18;3.30;;;1.90;;
23236;SDS011;11787;52.018;8.570;2022-07-18T00:25:44;3.45;;;2.13;;
23236;SDS011;11787;52.018;8.570;2022-07-18T00:28:10;2.45;;;1.95;;
23236;SDS011;11787;52.018;8.570;2022-07-18T00:30:37;3.95;;;2.10;;
23236;SDS011;11787;52.018;8.570;2022-07-18T00:33:03;4.50;;;2.10;;
23236;SDS011;11787;52.018;8.570;2022-07-18T00:35:29;4.10;;;2.50;;
23236;SDS011;11787;52.018;8.570;2022-07-18T00:37:55;3.15;;;1.95;;
23236;SDS011;11787;52.018;8.570;2022-07-18T00:40:20;3.85;;;2.15;;
23236;SDS011;11787;52.018;8.570;2022-07-18T00:42:46;3.25;;;2.13;;
23236;SDS011;11787;52.018;8.570;2022-07-18T00:45:12;3.78;;;1.90;;
23236;SDS011;11787;52.018;8.570;2022-07-18T00:47:38;4.50;;;2.25;;
23236;SDS011;11787;52.018;8.570;2022-07-18T00:50:03;4.40;;;2.00;;
23236;SDS011;11787;52.018;8.570;2022-07-18T00:52:32;3.78;;;2.10;;
23236;SDS011;11787;52.018;8.570;2022-07-18T00:54:58;7.13;;;2.50;;
23236;SDS011;11787;52.018;8.570;2022-07-18T00:57:24;4.95;;;2.13;;
23236;SDS011;11787;52.018;8.570;2022-07-18T00:59:51;4.30;;;2.20;;
23236;SDS011;11787;52.018;8.570;2022-07-18T01:02:35;3.80;;;2.17;;
23236;SDS011;11787;52.018;8.570;2022-07-18T01:05:02;6.03;;;2.20;;
23236;SDS011;11787;52.018;8.570;2022-07-18T01:07:28;3.35;;;2.10;;
23236;SDS011;11787;52.018;8.570;2022-07-18T01:09:54;5.95;;;2.20;;
23236;SDS011;11787;52.018;8.570;2022-07-18T01:12:20;2.95;;;1.88;;
23236;SDS011;11787;52.018;8.570;2022-07-18T01:14:46;3.53;;;2.00;;
23236;SDS011;11787;52.018;8.570;2022-07-18T01:17:13;3.28;;;2.20;;
23236;SDS011;11787;52.018;8.570;2022-07-18T01:19:40;5.60;;;2.22;;
23236;SDS011;11787;52.018;8.570;2022-07-18T01:22:06;6.32;;;2.05;;
23236;SDS011;11787;52.018;8.570;2022-07-18T01:24:32;3.35;;;1.92;;
23236;SDS011;11787;52.018;8.570;2022-07-18T01:26:59;4.25;;;2.15;;
23236;SDS011;11787;52.018;8.570;2022-07-18T01:29:25;3.05;;;2.10;;
23236;SDS011;11787;52.018;8.570;2022-07-18T01:31:51;4.47;;;2.00;;
23236;SDS011;11787;52.018;8.570;2022-07-18T01:34:23;3.53;;;2.28;;
23236;SDS011;11787;52.018;8.570;2022-07-18T01:36:48;4.60;;;2.00;;
23236;SDS011;11787;52.018;8.570;2022-07-18T01:39:14;5.13;;;2.10;;
23236;SDS011;11787;52.018;8.570;2022-07-18T01:41:40;4.65;;;1.85;;
23236;SDS011;11787;52.018;8.570;2022-07-18T01:44:06;3.13;;;1.90;;
23236;SDS011;11787;52.018;8.570;2022-07-18T01:46:32;3.90;;;2.08;;
23236;SDS011;11787;52.018;8.570;2022-07-18T01:48:58;5.95;;;1.88;;
23236;SDS011;11787;52.018;8.570;2022-07-18T01:51:24;3.08;;;1.88;;
23236;SDS011;11787;52.018;8.570;2022-07-18T01:53:54;3.15;;;1.80;;
23236;SDS011;11787;52.018;8.570;2022-07-18T01:56:23;3.83;;;1.85;;
23236;SDS011;11787;52.018;8.570;2022-07-18T01:58:49;2.42;;;1.73;;
23236;SDS011;11787;52.018;8.570;2022-07-18T02:01:14;4.25;;;1.90;;
23236;SDS011;11787;52.018;8.570;2022-07-18T02:03:41;2.72;;;1.90;;
23236;SDS011;11787;52.018;8.570;2022-07-18T02:06:07;5.63;;;2.00;;
23236;SDS011;11787;52.018;8.570;2022-07-18T02:08:32;4.45;;;2.25;;
23236;SDS011;11787;52.018;8.570;2022-07-18T02:10:58;3.80;;;2.08;;
23236;SDS011;11787;52.018;8.570;2022-07-18T02:13:24;4.45;;;2.10;;
23236;SDS011;11787;52.018;8.570;2022-07-18T02:15:49;3.08;;;1.88;;
23236;SDS011;11787;52.018;8.570;2022-07-18T02:18:15;7.28;;;2.17;;
23236;SDS011;11787;52.018;8.570;2022-07-18T02:20:41;3.65;;;1.85;;
23236;SDS011;11787;52.018;8.570;2022-07-18T02:23:07;3.30;;;2.00;;
23236;SDS011;11787;52.018;8.570;2022-07-18T02:25:33;2.95;;;1.80;;
23236;SDS011;11787;52.018;8.570;2022-07-18T02:27:59;2.63;;;1.80;;
23236;SDS011;11787;52.018;8.570;2022-07-18T02:30:25;4.03;;;2.30;;
23236;SDS011;11787;52.018;8.570;2022-07-18T02:32:51;4.60;;;1.95;;
23236;SDS011;11787;52.018;8.570;2022-07-18T02:35:16;3.05;;;1.95;;
23236;SDS011;11787;52.018;8.570;2022-07-18T02:37:42;2.22;;;1.63;;
23236;SDS011;11787;52.018;8.570;2022-07-18T02:40:09;3.92;;;2.15;;
23236;SDS011;11787;52.018;8.570;2022-07-18T02:42:36;4.03;;;1.88;;
23236;SDS011;11787;52.018;8.570;2022-07-18T02:45:06;5.00;;;2.30;;
23236;SDS011;11787;52.018;8.570;2022-07-18T02:47:32;3.95;;;2.40;;
23236;SDS011;11787;52.018;8.570;2022-07-18T02:49:58;4.53;;;1.95;;
23236;SDS011;11787;52.018;8.570;2022-07-18T02:52:24;3.28;;;2.20;;
23236;SDS011;11787;52.018;8.570;2022-07-18T02:54:49;5.00;;;1.98;;
23236;SDS011;11787;52.018;8.570;2022-07-18T02:57:15;4.03;;;2.03;;
23236;SDS011;11787;52.018;8.570;2022-07-18T02:59:41;2.95;;;1.80;;
23236;SDS011;11787;52.018;8.570;2022-07-18T03:02:06;4.05;;;2.22;;
23236;SDS011;11787;52.018;8.570;2022-07-18T03:04:32;4.43;;;2.50;;
23236;SDS011;11787;52.018;8.570;2022-07-18T03:06:58;4.18;;;2.40;;
23236;SDS011;11787;52.018;8.570;2022-07-18T03:09:23;5.80;;;2.17;;
23236;SDS011;11787;52.018;8.570;2022-07-18T03:11:52;5.05;;;2.33;;
23236;SDS011;11787;52.018;8.570;2022-07-18T03:14:19;3.42;;;2.20;;
23236;SDS011;11787;52.018;8.570;2022-07-18T03:16:45;4.68;;;2.42;;
23236;SDS011;11787;52.018;8.570;2022-07-18T03:19:11;4.47;;;2.20;;
23236;SDS011;11787;52.018;8.570;2022-07-18T03:21:37;4.72;;;2.13;;
23236;SDS011;11787;52.018;8.570;2022-07-18T03:24:02;4.90;;;2.40;;
23236;SDS011;11787;52.018;8.570;2022-07-18T03:26:28;3.58;;;2.15;;
23236;SDS011;11787;52.018;8.570;2022-07-18T03:28:54;4.90;;;2.35;;
23236;SDS011;11787;52.018;8.570;2022-07-18T03:31:20;5.53;;;2.20;;
23236;SDS011;11787;52.018;8.570;2022-07-18T03:33:46;3.95;;;1.98;;
23236;SDS011;11787;52.018;8.570;2022-07-18T03:36:11;3.92;;;2.50;;
23236;SDS011;11787;52.018;8.570;2022-07-18T03:38:37;5.32;;;1.77;;
23236;SDS011;11787;52.018;8.570;2022-07-18T03:41:08;3.95;;;2.22;;
23236;SDS011;11787;52.018;8.570;2022-07-18T03:43:35;3.20;;;2.10;;
23236;SDS011;11787;52.018;8.570;2022-07-18T03:46:01;4.65;;;2.35;;
23236;SDS011;11787;52.018;8.570;2022-07-18T03:48:27;3.78;;;1.92;;
23236;SDS011;11787;52.018;8.570;2022-07-18T03:50:52;6.10;;;2.47;;
23236;SDS011;11787;52.018;8.570;2022-07-18T03:53:18;5.80;;;2.20;;
23236;SDS011;11787;52.018;8.570;2022-07-18T03:55:44;3.38;;;1.88;;
23236;SDS011;11787;52.018;8.570;2022-07-18T03:58:09;3.05;;;1.90;;
23236;SDS011;11787;52.018;8.570;2022-07-18T04:00:35;5.80;;;2.28;;
23236;SDS011;11787;52.018;8.570;2022-07-18T04:03:01;4.00;;;2.15;;
23236;SDS011;11787;52.018;8.570;2022-07-18T04:05:27;3.00;;;1.95;;
23236;SDS011;11787;52.018;8.570;2022-07-18T04:07:53;2.88;;;1.98;;
23236;SDS011;11787;52.018;8.570;2022-07-18T04:10:18;3.30;;;1.85;;
23236;SDS011;11787;52.018;8.570;2022-07-18T04:12:48;3.25;;;1.98;;
23236;SDS011;11787;52.018;8.570;2022-07-18T04:15:15;5.22;;;2.78;;
23236;SDS011;11787;52.018;8.570;2022-07-18T04:17:42;4.55;;;3.10;;
23236;SDS011;11787;52.018;8.570;2022-07-18T04:20:08;3.80;;;2.60;;
23236;SDS011;11787;52.018;8.570;2022-07-18T04:22:43;3.42;;;2.20;;
23236;SDS011;11787;52.018;8.570;2022-07-18T04:25:13;3.00;;;2.03;;
23236;SDS011;11787;52.018;8.570;2022-07-18T04:27:39;3.20;;;1.90;;
23236;SDS011;11787;52.018;8.570;2022-07-18T04:30:05;3.88;;;1.98;;
23236;SDS011;11787;52.018;8.570;2022-07-18T04:32:31;4.22;;;1.98;;
23236;SDS011;11787;52.018;8.570;2022-07-18T04:34:57;3.63;;;2.00;;
23236;SDS011;11787;52.018;8.570;2022-07-18T04:37:22;4.25;;;1.75;;
23236;SDS011;11787;52.018;8.570;2022-07-18T04:39:48;3.63;;;1.95;;
23236;SDS011;11787;52.018;8.570;2022-07-18T04:42:13;3.95;;;2.10;;
23236;SDS011;11787;52.018;8.570;2022-07-18T04:44:39;4.22;;;2.13;;
23236;SDS011;11787;52.018;8.570;2022-07-18T04:47:05;3.67;;;1.80;;
23236;SDS011;11787;52.018;8.570;2022-07-18T04:49:30;5.07;;;2.20;;
23236;SDS011;11787;52.018;8.570;2022-07-18T04:51:56;5.50;;;2.30;;
23236;SDS011;11787;52.018;8.570;2022-07-18T04:54:22;5.93;;;2.35;;
23236;SDS011;11787;52.018;8.570;2022-07-18T04:56:47;3.90;;;2.25;;
23236;SDS011;11787;52.018;8.570;2022-07-18T04:59:13;4.10;;;2.38;;
23236;SDS011;11787;52.018;8.570;2022-07-18T05:01:38;5.93;;;2.05;;
23236;SDS011;11787;52.018;8.570;2022-07-18T05:04:04;4.03;;;1.88;;
23236;SDS011;11787;52.018;8.570;2022-07-18T05:06:30;4.20;;;2.00;;
23236;SDS011;11787;52.018;8.570;2022-07-18T05:08:55;4.07;;;1.80;;
23236;SDS011;11787;52.018;8.570;2022-07-18T05:11:21;5.80;;;2.20;;
23236;SDS011;11787;52.018;8.570;2022-07-18T05:13:46;3.08;;;2.05;;
23236;SDS011;11787;52.018;8.570;2022-07-18T05:16:12;4.80;;;1.98;;
23236;SDS011;11787;52.018;8.570;2022-07-18T05:18:38;7.63;;;2.10;;
23236;SDS011;11787;52.018;8.570;2022-07-18T05:21:03;5.07;;;1.88;;
23236;SDS011;11787;52.018;8.570;2022-07-18T05:23:29;4.05;;;1.88;;
23236;SDS011;11787;52.018;8.570;2022-07-18T05:25:54;6.82;;;2.10;;
23236;SDS011;11787;52.018;8.570;2022-07-18T05:28:20;2.63;;;1.80;;
23236;SDS011;11787;52.018;8.570;2022-07-18T05:30:46;4.45;;;1.85;;
23236;SDS011;11787;52.018;8.570;2022-07-18T05:33:11;4.30;;;1.60;;
23236;SDS011;11787;52.018;8.570;2022-07-18T05:35:37;2.70;;;1.73;;
23236;SDS011;11787;52.018;8.570;2022-07-18T05:38:03;3.72;;;1.52;;
23236;SDS011;11787;52.018;8.570;2022-07-18T05:40:28;4.18;;;1.77;;
23236;SDS011;11787;52.018;8.570;2022-07-18T05:42:54;4.88;;;1.98;;
23236;SDS011;11787;52.018;8.570;2022-07-18T05:45:20;6.65;;;2.05;;
23236;SDS011;11787;52.018;8.570;2022-07-18T05:47:48;5.22;;;2.00;;
23236;SDS011;11787;52.018;8.570;2022-07-18T05:50:13;4.30;;;2.10;;
23236;SDS011;11787;52.018;8.570;2022-07-18T05:52:39;4.90;;;2.03;;
23236;SDS011;11787;52.018;8.570;2022-07-18T05:55:05;7.05;;;2.05;;
23236;SDS011;11787;52.018;8.570;2022-07-18T05:57:31;7.53;;;2.05;;
23236;SDS011;11787;52.018;8.570;2022-07-18T05:59:56;4.05;;;1.83;;
23236;SDS011;11787;52.018;8.570;2022-07-18T06:02:22;3.90;;;1.92;;
23236;SDS011;11787;52.018;8.570;2022-07-18T06:04:48;5.63;;;2.10;;
23236;SDS011;11787;52.018;8.570;2022-07-18T06:07:13;3.63;;;1.90;;
23236;SDS011;11787;52.018;8.570;2022-07-18T06:09:39;4.20;;;1.80;;
23236;SDS011;11787;52.018;8.570;2022-07-18T06:12:05;5.88;;;2.05;;
23236;SDS011;11787;52.018;8.570;2022-07-18T06:14:31;5.53;;;1.80;;
23236;SDS011;11787;52.018;8.570;2022-07-18T06:16:57;4.53;;;1.90;;
23236;SDS011;11787;52.018;8.570;2022-07-18T06:19:23;4.32;;;1.73;;
23236;SDS011;11787;52.018;8.570;2022-07-18T06:21:50;3.00;;;1.55;;
23236;SDS011;11787;52.018;8.570;2022-07-18T06:24:16;4.65;;;1.92;;
23236;SDS011;11787;52.018;8.570;2022-07-18T06:26:42;4.20;;;1.80;;
23236;SDS011;11787;52.018;8.570;2022-07-18T06:29:07;4.75;;;1.73;;
23236;SDS011;11787;52.018;8.570;2022-07-18T06:31:33;5.10;;;1.60;;
23236;SDS011;11787;52.018;8.570;2022-07-18T06:33:59;7.00;;;1.75;;
23236;SDS011;11787;52.018;8.570;2022-07-18T06:36:24;4.03;;;1.60;;
23236;SDS011;11787;52.018;8.570;2022-07-18T06:38:50;5.22;;;1.73;;
23236;SDS011;11787;52.018;8.570;2022-07-18T06:41:16;3.97;;;1.67;;
23236;SDS011;11787;52.018;8.570;2022-07-18T06:43:43;4.38;;;1.70;;
23236;SDS011;11787;52.018;8.570;2022-07-18T06:46:08;5.03;;;1.70;;
23236;SDS011;11787;52.018;8.570;2022-07-18T06:48:34;4.00;;;1.50;;
23236;SDS011;11787;52.018;8.570;2022-07-18T06:51:00;7.00;;;1.70;;
23236;SDS011;11787;52.018;8.570;2022-07-18T06:53:27;2.85;;;1.58;;
23236;SDS011;11787;52.018;8.570;2022-07-18T06:55:53;3.75;;;1.80;;
23236;SDS011;11787;52.018;8.570;2022-07-18T06:58:19;3.55;;;1.65;;
23236;SDS011;11787;52.018;8.570;2022-07-18T07:00:45;4.22;;;1.63;;
23236;SDS011;11787;52.018;8.570;2022-07-18T07:03:11;4.53;;;1.60;;
23236;SDS011;11787;52.018;8.570;2022-07-18T07:05:36;4.50;;;1.80;;
23236;SDS011;11787;52.018;8.570;2022-07-18T07:08:03;6.18;;;1.70;;
23236;SDS011;11787;52.018;8.570;2022-07-18T07:10:29;6.78;;;1.63;;
23236;SDS011;11787;52.018;8.570;2022-07-18T07:12:54;2.83;;;1.48;;
23236;SDS011;11787;52.018;8.570;2022-07-18T07:15:22;6.25;;;1.98;;
23236;SDS011;11787;52.018;8.570;2022-07-18T07:17:49;3.50;;;1.70;;
23236;SDS011;11787;52.018;8.570;2022-07-18T07:20:15;5.88;;;1.65;;
23236;SDS011;11787;52.018;8.570;2022-07-18T07:22:44;5.07;;;1.80;;
23236;SDS011;11787;52.018;8.570;2022-07-18T07:25:10;3.45;;;1.77;;
23236;SDS011;11787;52.018;8.570;2022-07-18T07:27:37;3.72;;;1.30;;
23236;SDS011;11787;52.018;8.570;2022-07-18T07:30:02;3.70;;;1.83;;
23236;SDS011;11787;52.018;8.570;2022-07-18T07:32:29;6.43;;;1.65;;
23236;SDS011;11787;52.018;8.570;2022-07-18T07:35:02;1.02;;;0.93;;
23236;SDS011;11787;52.018;8.570;2022-07-18T07:37:31;4.32;;;1.40;;
23236;SDS011;11787;52.018;8.570;2022-07-18T07:39:59;4.60;;;1.50;;
23236;SDS011;11787;52.018;8.570;2022-07-18T07:42:25;3.70;;;1.20;;
23236;SDS011;11787;52.018;8.570;2022-07-18T07:44:51;4.18;;;1.50;;
23236;SDS011;11787;52.018;8.570;2022-07-18T07:47:16;4.00;;;1.45;;
23236;SDS011;11787;52.018;8.570;2022-07-18T07:49:42;2.53;;;1.15;;
23236;SDS011;11787;52.018;8.570;2022-07-18T07:52:08;4.85;;;1.40;;
23236;SDS011;11787;52.018;8.570;2022-07-18T07:54:35;4.68;;;1.55;;
23236;SDS011;11787;52.018;8.570;2022-07-18T07:57:01;3.42;;;1.30;;
23236;SDS011;11787;52.018;8.570;2022-07-18T07:59:26;2.58;;;1.30;;
23236;SDS011;11787;52.018;8.570;2022-07-18T08:01:52;3.95;;;1.30;;
23236;SDS011;11787;52.018;8.570;2022-07-18T08:04:17;4.10;;;1.30;;
23236;SDS011;11787;52.018;8.570;2022-07-18T08:06:43;2.83;;;1.17;;
23236;SDS011;11787;52.018;8.570;2022-07-18T08:09:09;2.40;;;1.20;;
23236;SDS011;11787;52.018;8.570;2022-07-18T08:11:34;3.88;;;1.30;;
23236;SDS011;11787;52.018;8.570;2022-07-18T08:14:00;3.22;;;1.48;;
23236;SDS011;11787;52.018;8.570;2022-07-18T08:16:25;5.40;;;1.75;;
23236;SDS011;11787;52.018;8.570;2022-07-18T08:18:51;3.80;;;1.40;;
23236;SDS011;11787;52.018;8.570;2022-07-18T08:21:17;4.28;;;1.40;;
23236;SDS011;11787;52.018;8.570;2022-07-18T08:23:42;4.20;;;1.35;;
23236;SDS011;11787;52.018;8.570;2022-07-18T08:26:10;3.80;;;1.50;;
23236;SDS011;11787;52.018;8.570;2022-07-18T08:28:35;2.83;;;1.45;;
23236;SDS011;11787;52.018;8.570;2022-07-18T08:31:01;3.33;;;1.13;;
23236;SDS011;11787;52.018;8.570;2022-07-18T08:33:26;4.70;;;1.38;;
23236;SDS011;11787;52.018;8.570;2022-07-18T08:35:52;2.95;;;1.40;;
23236;SDS011;11787;52.018;8.570;2022-07-18T08:38:17;5.20;;;1.13;;
23236;SDS011;11787;52.018;8.570;2022-07-18T08:40:43;3.78;;;1.20;;
23236;SDS011;11787;52.018;8.570;2022-07-18T08:43:12;3.05;;;1.35;;
23236;SDS011;11787;52.018;8.570;2022-07-18T08:45:38;2.70;;;1.20;;
23236;SDS011;11787;52.018;8.570;2022-07-18T08:48:06;3.20;;;1.20;;
23236;SDS011;11787;52.018;8.570;2022-07-18T08:50:32;2.13;;;1.10;;
23236;SDS011;11787;52.018;8.570;2022-07-18T08:52:58;2.92;;;1.08;;
23236;SDS011;11787;52.018;8.570;2022-07-18T08:55:24;2.03;;;1.08;;
23236;SDS011;11787;52.018;8.570;2022-07-18T08:57:50;2.97;;;0.93;;
23236;SDS011;11787;52.018;8.570;2022-07-18T09:00:17;1.95;;;0.90;;
23236;SDS011;11787;52.018;8.570;2022-07-18T09:02:43;2.63;;;1.08;;
23236;SDS011;11787;52.018;8.570;2022-07-18T09:05:17;3.10;;;1.00;;
23236;SDS011;11787;52.018;8.570;2022-07-18T09:07:44;2.40;;;1.00;;
23236;SDS011;11787;52.018;8.570;2022-07-18T09:10:10;2.97;;;1.10;;
23236;SDS011;11787;52.018;8.570;2022-07-18T09:12:36;3.75;;;1.50;;
23236;SDS011;11787;52.018;8.570;2022-07-18T09:15:08;2.83;;;1.17;;
23236;SDS011;11787;52.018;8.570;2022-07-18T09:17:35;2.50;;;0.88;;
23236;SDS011;11787;52.018;8.570;2022-07-18T09:20:09;1.60;;;0.80;;
23236;SDS011;11787;52.018;8.570;2022-07-18T09:22:39;3.97;;;1.00;;
23236;SDS011;11787;52.018;8.570;2022-07-18T09:25:09;4.32;;;1.20;;
23236;SDS011;11787;52.018;8.570;2022-07-18T09:33:04;3.38;;;1.13;;
23236;SDS011;11787;52.018;8.570;2022-07-18T09:35:42;2.25;;;0.90;;
23236;SDS011;11787;52.018;8.570;2022-07-18T09:38:16;3.67;;;1.40;;
23236;SDS011;11787;52.018;8.570;2022-07-18T09:40:44;2.30;;;0.80;;
23236;SDS011;11787;52.018;8.570;2022-07-18T09:43:12;3.30;;;0.80;;
23236;SDS011;11787;52.018;8.570;2022-07-18T09:45:50;1.75;;;0.70;;
23236;SDS011;11787;52.018;8.570;2022-07-18T09:48:20;1.88;;;0.95;;
23236;SDS011;11787;52.018;8.570;2022-07-18T09:53:21;3.67;;;0.85;;
23236;SDS011;11787;52.018;8.570;2022-07-18T09:55:52;1.75;;;1.00;;
23236;SDS011;11787;52.018;8.570;2022-07-18T09:58:23;4.47;;;1.05;;
23236;SDS011;11787;52.018;8.570;2022-07-18T10:00:54;1.90;;;0.65;;
23236;SDS011;11787;52.018;8.570;2022-07-18T10:03:21;2.72;;;1.00;;
23236;SDS011;11787;52.018;8.570;2022-07-18T10:05:48;1.65;;;0.90;;
23236;SDS011;11787;52.018;8.570;2022-07-18T10:26:25;2.08;;;0.98;;
23236;SDS011;11787;52.018;8.570;2022-07-18T10:31:21;3.00;;;1.13;;
23236;SDS011;11787;52.018;8.570;2022-07-18T10:33:47;1.52;;;1.02;;
23236;SDS011;11787;52.018;8.570;2022-07-18T10:36:17;7.80;;;1.30;;
23236;SDS011;11787;52.018;8.570;2022-07-18T10:57:30;4.65;;;1.15;;
23236;SDS011;11787;52.018;8.570;2022-07-18T11:00:10;1.90;;;1.10;;
23236;SDS011;11787;52.018;8.570;2022-07-18T11:02:43;2.72;;;1.30;;
23236;SDS011;11787;52.018;8.570;2022-07-18T11:13:43;4.55;;;1.77;;
23236;SDS011;11787;52.018;8.570;2022-07-18T11:21:21;2.38;;;1.60;;
23236;SDS011;11787;52.018;8.570;2022-07-18T11:24:10;2.90;;;1.73;;
23236;SDS011;11787;52.018;8.570;2022-07-18T11:26:36;3.28;;;1.67;;
23236;SDS011;11787;52.018;8.570;2022-07-18T11:29:09;4.15;;;1.60;;
23236;SDS011;11787;52.018;8.570;2022-07-18T11:31:49;3.92;;;1.75;;
23236;SDS011;11787;52.018;8.570;2022-07-18T11:34:20;3.33;;;1.60;;
23236;SDS011;11787;52.018;8.570;2022-07-18T11:36:47;4.20;;;1.73;;
23236;SDS011;11787;52.018;8.570;2022-07-18T11:39:13;2.90;;;1.70;;
23236;SDS011;11787;52.018;8.570;2022-07-18T11:41:40;4.38;;;2.05;;
23236;SDS011;11787;52.018;8.570;2022-07-18T11:44:16;9.68;;;1.60;;
23236;SDS011;11787;52.018;8.570;2022-07-18T11:46:43;4.05;;;1.58;;
23236;SDS011;11787;52.018;8.570;2022-07-18T11:49:09;2.88;;;1.63;;
23236;SDS011;11787;52.018;8.570;2022-07-18T11:51:39;2.22;;;1.40;;
23236;SDS011;11787;52.018;8.570;2022-07-18T11:54:07;4.45;;;1.40;;
23236;SDS011;11787;52.018;8.570;2022-07-18T11:56:34;3.58;;;1.40;;
23236;SDS011;11787;52.018;8.570;2022-07-18T11:59:14;2.60;;;1.60;;
23236;SDS011;11787;52.018;8.570;2022-07-18T12:01:40;4.22;;;1.45;;
23236;SDS011;11787;52.018;8.570;2022-07-18T12:04:06;5.05;;;1.50;;
23236;SDS011;11787;52.018;8.570;2022-07-18T12:06:42;3.75;;;1.83;;
23236;SDS011;11787;52.018;8.570;2022-07-18T12:09:08;3.90;;;1.90;;
23236;SDS011;11787;52.018;8.570;2022-07-18T12:11:35;3.10;;;1.60;;
23236;SDS011;11787;52.018;8.570;2022-07-18T12:18:58;4.57;;;1.40;;
23236;SDS011;11787;52.018;8.570;2022-07-18T12:21:51;3.63;;;1.40;;
23236;SDS011;11787;52.018;8.570;2022-07-18T12:24:29;2.78;;;1.30;;
23236;SDS011;11787;52.018;8.570;2022-07-18T12:35:07;1.60;;;1.23;;
23236;SDS011;11787;52.018;8.570;2022-07-18T12:37:35;4.93;;;3.22;;
23236;SDS011;11787;52.018;8.570;2022-07-18T12:40:08;2.92;;;1.60;;
23236;SDS011;11787;52.018;8.570;2022-07-18T12:42:37;2.88;;;1.45;;
23236;SDS011;11787;52.018;8.570;2022-07-18T12:45:05;2.40;;;1.30;;
23236;SDS011;11787;52.018;8.570;2022-07-18T12:47:32;2.13;;;1.27;;
23236;SDS011;11787;52.018;8.570;2022-07-18T12:49:58;2.95;;;1.27;;
23236;SDS011;11787;52.018;8.570;2022-07-18T12:52:24;2.58;;;1.25;;
23236;SDS011;11787;52.018;8.570;2022-07-18T12:54:50;1.88;;;1.38;;
23236;SDS011;11787;52.018;8.570;2022-07-18T12:57:16;2.83;;;1.33;;
23236;SDS011;11787;52.018;8.570;2022-07-18T12:59:43;2.50;;;1.40;;
23236;SDS011;11787;52.018;8.570;2022-07-18T13:02:09;5.03;;;1.45;;
23236;SDS011;11787;52.018;8.570;2022-07-18T13:04:35;3.58;;;1.50;;
23236;SDS011;11787;52.018;8.570;2022-07-18T13:07:01;2.00;;;1.50;;
23236;SDS011;11787;52.018;8.570;2022-07-18T13:09:27;1.73;;;1.17;;
23236;SDS011;11787;52.018;8.570;2022-07-18T13:11:52;2.45;;;1.27;;
23236;SDS011;11787;52.018;8.570;2022-07-18T13:14:18;1.45;;;1.35;;
23236;SDS011;11787;52.018;8.570;2022-07-18T13:16:44;2.67;;;1.10;;
23236;SDS011;11787;52.018;8.570;2022-07-18T13:19:12;3.30;;;1.30;;
23236;SDS011;11787;52.018;8.570;2022-07-18T13:21:38;2.75;;;1.70;;
23236;SDS011;11787;52.018;8.570;2022-07-18T13:24:04;2.53;;;1.23;;
23236;SDS011;11787;52.018;8.570;2022-07-18T13:26:30;2.80;;;1.27;;
23236;SDS011;11787;52.018;8.570;2022-07-18T13:28:56;3.63;;;1.30;;
23236;SDS011;11787;52.018;8.570;2022-07-18T13:31:21;1.92;;;1.38;;
23236;SDS011;11787;52.018;8.570;2022-07-18T13:33:47;4.70;;;1.35;;
23236;SDS011;11787;52.018;8.570;2022-07-18T13:36:13;2.72;;;1.45;;
23236;SDS011;11787;52.018;8.570;2022-07-18T13:38:39;1.60;;;1.10;;
23236;SDS011;11787;52.018;8.570;2022-07-18T13:41:05;3.20;;;1.42;;
23236;SDS011;11787;52.018;8.570;2022-07-18T13:43:31;5.10;;;1.40;;
23236;SDS011;11787;52.018;8.570;2022-07-18T13:45:56;2.88;;;1.30;;
23236;SDS011;11787;52.018;8.570;2022-07-18T13:48:22;3.22;;;1.27;;
23236;SDS011;11787;52.018;8.570;2022-07-18T13:50:48;2.90;;;1.50;;
23236;SDS011;11787;52.018;8.570;2022-07-18T13:53:14;2.63;;;1.70;;
23236;SDS011;11787;52.018;8.570;2022-07-18T13:55:39;1.98;;;1.30;;
23236;SDS011;11787;52.018;8.570;2022-07-18T13:58:05;1.35;;;1.20;;
23236;SDS011;11787;52.018;8.570;2022-07-18T14:00:31;2.28;;;1.42;;
23236;SDS011;11787;52.018;8.570;2022-07-18T14:02:56;4.20;;;1.33;;
23236;SDS011;11787;52.018;8.570;2022-07-18T14:05:22;1.33;;;1.08;;
23236;SDS011;11787;52.018;8.570;2022-07-18T14:07:48;1.52;;;1.20;;
23236;SDS011;11787;52.018;8.570;2022-07-18T14:10:14;4.50;;;1.50;;
23236;SDS011;11787;52.018;8.570;2022-07-18T14:12:40;2.92;;;1.58;;
23236;SDS011;11787;52.018;8.570;2022-07-18T14:15:07;1.40;;;1.20;;
23236;SDS011;11787;52.018;8.570;2022-07-18T14:17:34;4.38;;;1.45;;
23236;SDS011;11787;52.018;8.570;2022-07-18T14:20:00;2.30;;;1.20;;
23236;SDS011;11787;52.018;8.570;2022-07-18T14:22:25;2.72;;;1.10;;
23236;SDS011;11787;52.018;8.570;2022-07-18T14:24:51;3.78;;;1.60;;
23236;SDS011;11787;52.018;8.570;2022-07-18T14:27:17;2.38;;;1.40;;
23236;SDS011;11787;52.018;8.570;2022-07-18T14:29:42;3.17;;;1.17;;
23236;SDS011;11787;52.018;8.570;2022-07-18T14:32:08;2.60;;;1.48;;
23236;SDS011;11787;52.018;8.570;2022-07-18T14:34:34;3.30;;;1.52;;
23236;SDS011;11787;52.018;8.570;2022-07-18T14:37:00;4.80;;;1.20;;
23236;SDS011;11787;52.018;8.570;2022-07-18T14:39:25;2.20;;;1.13;;
23236;SDS011;11787;52.018;8.570;2022-07-18T14:41:51;4.28;;;1.50;;
23236;SDS011;11787;52.018;8.570;2022-07-18T14:44:17;3.13;;;1.13;;
23236;SDS011;11787;52.018;8.570;2022-07-18T14:46:43;2.92;;;1.20;;
23236;SDS011;11787;52.018;8.570;2022-07-18T14:49:08;2.03;;;1.10;;
23236;SDS011;11787;52.018;8.570;2022-07-18T14:51:34;1.75;;;1.20;;
23236;SDS011;11787;52.018;8.570;2022-07-18T14:54:00;2.38;;;1.20;;
23236;SDS011;11787;52.018;8.570;2022-07-18T14:56:25;4.40;;;1.60;;
23236;SDS011;11787;52.018;8.570;2022-07-18T14:58:51;2.90;;;1.38;;
23236;SDS011;11787;52.018;8.570;2022-07-18T15:01:17;2.53;;;1.20;;
23236;SDS011;11787;52.018;8.570;2022-07-18T15:03:44;4.72;;;1.65;;
23236;SDS011;11787;52.018;8.570;2022-07-18T15:06:11;3.42;;;1.25;;
23236;SDS011;11787;52.018;8.570;2022-07-18T15:08:37;3.78;;;1.80;;
23236;SDS011;11787;52.018;8.570;2022-07-18T15:11:03;2.78;;;1.80;;
23236;SDS011;11787;52.018;8.570;2022-07-18T15:13:29;2.42;;;1.35;;
23236;SDS011;11787;52.018;8.570;2022-07-18T15:15:54;4.47;;;1.20;;
23236;SDS011;11787;52.018;8.570;2022-07-18T15:18:20;2.92;;;1.30;;
23236;SDS011;11787;52.018;8.570;2022-07-18T15:20:45;2.10;;;1.40;;
23236;SDS011;11787;52.018;8.570;2022-07-18T15:23:11;2.60;;;1.50;;
23236;SDS011;11787;52.018;8.570;2022-07-18T15:25:37;2.15;;;1.25;;
23236;SDS011;11787;52.018;8.570;2022-07-18T15:28:03;3.17;;;1.40;;
23236;SDS011;11787;52.018;8.570;2022-07-18T15:30:28;4.20;;;1.58;;
23236;SDS011;11787;52.018;8.570;2022-07-18T15:32:54;3.10;;;1.40;;
23236;SDS011;11787;52.018;8.570;2022-07-18T15:35:20;3.92;;;1.52;;
23236;SDS011;11787;52.018;8.570;2022-07-18T15:37:45;2.72;;;1.38;;
23236;SDS011;11787;52.018;8.570;2022-07-18T15:40:11;4.68;;;1.25;;
23236;SDS011;11787;52.018;8.570;2022-07-18T15:42:36;2.50;;;1.27;;
23236;SDS011;11787;52.018;8.570;2022-07-18T15:45:02;3.90;;;1.55;;
23236;SDS011;11787;52.018;8.570;2022-07-18T15:47:28;4.70;;;1.42;;
23236;SDS011;11787;52.018;8.570;2022-07-18T15:49:54;2.38;;;1.40;;
23236;SDS011;11787;52.018;8.570;2022-07-18T15:52:19;1.92;;;1.40;;
23236;SDS011;11787;52.018;8.570;2022-07-18T15:54:45;3.58;;;1.60;;
23236;SDS011;11787;52.018;8.570;2022-07-18T15:57:10;3.47;;;1.45;;
23236;SDS011;11787;52.018;8.570;2022-07-18T15:59:36;2.33;;;1.40;;